Time;durP1;ratioP1;P1;durP2;ratioP2;P2;SDS_P1;SDS_P2;PMS_P1;PMS_P2;Temp;Humidity;BMP_temperature;BMP_pressure;BME280_temperature;BME280_humidity;BME280_pressure;Samples;Min_cycle;Max_cycle;Signal;HPM_P1;HPM_P2
2021/01/02 00:00:29;;;;;;;37.49;25.04;;;4.80;99.90;;;9.49;90.06;101106.98;1699844;75;24480;-77
2021/01/02 00:02:57;;;;;;;37.12;25.29;;;4.70;99.90;;;9.52;89.85;101104.03;1703638;75;24489;-80
2021/01/02 00:05:15;;;;;;;36.73;25.59;;;4.70;99.90;;;9.41;90.02;101112.45;1711224;73;25058;-79
2021/01/02 00:08:06;;;;;;;35.56;23.01;;;4.70;99.90;;;9.40;90.55;101110.30;1703147;75;24849;-76
2021/01/02 00:10:29;;;;;;;36.69;23.21;;;4.70;99.90;;;9.41;90.40;101105.95;1696190;75;24562;-77
2021/01/02 00:13:07;;;;;;;37.96;24.90;;;4.70;99.90;;;9.34;90.32;101118.40;1702139;75;24551;-77
2021/01/02 00:15:30;;;;;;;34.19;23.15;;;4.70;99.90;;;9.45;90.25;101120.38;1703847;73;24491;-77
2021/01/02 00:18:13;;;;;;;37.73;26.11;;;4.70;99.90;;;9.42;90.33;101119.42;1704247;75;24481;-78
2021/01/02 00:20:50;;;;;;;37.18;22.66;;;4.70;99.90;;;9.62;90.74;101116.36;1706476;75;24499;-76
2021/01/02 00:23:13;;;;;;;39.72;26.78;;;4.70;99.90;;;9.42;90.19;101116.83;1697790;75;24979;-76
2021/01/02 00:25:33;;;;;;;38.83;25.35;;;4.70;99.90;;;9.65;91.15;101111.63;1710557;74;25003;-77
2021/01/02 00:31:13;;;;;;;40.33;27.46;;;4.70;99.90;;;9.76;89.56;101120.50;1725197;72;25707;-77
2021/01/02 00:33:43;;;;;;;40.23;26.61;;;4.70;99.90;;;9.61;90.98;101124.13;1713968;74;24441;-77
2021/01/02 00:36:05;;;;;;;41.41;27.21;;;4.70;99.90;;;9.67;90.25;101122.53;1709663;74;24490;-77
2021/01/02 00:38:24;;;;;;;41.16;27.81;;;4.70;99.90;;;9.60;90.19;101120.64;1700871;74;24444;-77
2021/01/02 00:40:41;;;;;;;44.03;28.75;;;4.70;99.90;;;9.61;90.29;101122.83;1705141;74;24465;-76
2021/01/02 00:42:58;;;;;;;40.75;28.07;;;4.70;99.90;;;9.55;90.47;101131.82;1700205;74;24520;-77
2021/01/02 00:45:17;;;;;;;44.92;27.39;;;4.70;99.90;;;9.61;90.41;101126.73;1708158;74;24545;-77
2021/01/02 00:47:38;;;;;;;38.93;27.18;;;4.70;99.90;;;9.47;89.90;101122.55;1710793;74;24857;-77
2021/01/02 00:49:58;;;;;;;43.11;27.98;;;4.70;99.90;;;9.52;89.99;101129.13;1704359;74;24468;-76
2021/01/02 00:52:21;;;;;;;40.28;26.11;;;4.70;99.90;;;9.53;90.65;101133.06;1700035;74;24449;-76
2021/01/02 00:54:42;;;;;;;41.19;26.35;;;4.70;99.90;;;9.42;89.72;101125.48;1706180;74;24468;-77
2021/01/02 00:57:06;;;;;;;36.75;25.32;;;4.70;99.90;;;9.46;90.17;101130.32;1712873;74;24443;-77
2021/01/02 01:00:05;;;;;;;39.45;27.55;;;4.70;99.90;;;9.34;90.00;101127.50;1713942;74;24901;-76
2021/01/02 01:03:02;;;;;;;39.51;26.78;;;4.60;99.90;;;9.33;90.40;101125.30;1698371;74;24460;-78
2021/01/02 01:05:23;;;;;;;25.70;15.56;;;4.60;99.90;;;9.42;90.63;101128.08;1699662;74;24528;-77
2021/01/02 01:07:40;;;;;;;41.93;27.31;;;4.60;99.90;;;9.18;90.35;101122.42;1702039;74;24951;-76
2021/01/02 01:10:01;;;;;;;41.23;27.87;;;4.60;99.90;;;9.18;90.94;101130.21;1704249;74;24969;-75
2021/01/02 01:12:20;;;;;;;38.53;26.73;;;4.60;99.90;;;9.34;90.86;101133.98;1701787;74;24883;-77
2021/01/02 01:14:37;;;;;;;43.42;27.77;;;4.60;99.90;;;9.27;90.39;101129.09;1696204;75;24561;-77
2021/01/02 01:16:57;;;;;;;43.06;27.02;;;4.60;99.90;;;9.42;90.57;101126.78;1696436;75;24458;-78
2021/01/02 01:19:18;;;;;;;37.13;27.18;;;4.60;99.90;;;9.32;90.03;101126.58;1704953;74;24436;-77
2021/01/02 01:21:41;;;;;;;44.68;29.68;;;4.60;99.90;;;9.33;90.51;101135.70;1704727;75;24913;-76
2021/01/02 01:24:13;;;;;;;39.75;27.41;;;4.60;99.90;;;9.36;90.20;101134.46;1696417;75;24437;-77
2021/01/02 01:26:46;;;;;;;40.77;27.74;;;4.60;99.90;;;9.37;90.13;101132.75;1708203;74;25000;-77
2021/01/02 01:29:04;;;;;;;44.72;28.02;;;4.60;99.90;;;9.26;90.16;101136.44;1698449;74;24441;-76
2021/01/02 01:31:22;;;;;;;40.61;28.24;;;4.60;99.90;;;9.40;90.27;101135.41;1713015;74;24437;-77
2021/01/02 01:33:41;;;;;;;39.58;26.28;;;4.60;99.90;;;9.32;90.27;101134.38;1706971;74;25948;-77
2021/01/02 01:36:04;;;;;;;39.94;27.44;;;4.50;99.90;;;9.25;89.99;101138.56;1719215;74;24529;-77
2021/01/02 01:38:26;;;;;;;41.97;27.25;;;4.50;99.90;;;9.34;90.03;101136.18;1706045;74;24858;-77
2021/01/02 01:40:45;;;;;;;38.34;26.36;;;4.50;99.90;;;9.26;90.46;101141.64;1707497;74;24480;-77
2021/01/02 01:43:07;;;;;;;40.17;26.56;;;4.60;99.90;;;9.28;89.87;101145.13;1710208;74;24425;-77
2021/01/02 01:45:44;;;;;;;39.62;26.27;;;4.60;99.90;;;9.37;89.92;101151.83;1708217;74;24882;-76
2021/01/02 01:48:09;;;;;;;41.19;26.44;;;4.50;99.90;;;9.29;89.56;101148.61;1720474;74;24449;-77
2021/01/02 01:50:28;;;;;;;37.42;25.37;;;4.50;99.90;;;9.41;89.40;101147.12;1701920;74;24448;-77
2021/01/02 01:53:35;;;;;;;37.72;25.12;;;4.50;99.90;;;9.34;90.13;101152.18;1705792;74;24560;-76
2021/01/02 01:56:17;;;;;;;38.24;27.50;;;4.50;99.90;;;9.27;89.39;101156.78;1685462;74;24541;-77
2021/01/02 01:59:18;;;;;;;40.33;26.99;;;4.50;99.90;;;9.55;90.00;101159.97;1718421;74;24935;-77
2021/01/02 02:01:39;;;;;;;38.27;25.93;;;4.50;99.90;;;9.57;89.70;101162.59;1713606;74;24926;-76
2021/01/02 02:04:37;;;;;;;38.39;26.93;;;4.50;99.90;;;9.51;88.94;101163.78;1710751;74;24619;-76
2021/01/02 02:07:00;;;;;;;36.28;23.54;;;4.50;99.90;;;9.55;89.08;101168.22;1691810;74;24912;-78
2021/01/02 02:09:22;;;;;;;38.93;27.07;;;4.50;99.90;;;9.30;88.71;101160.74;1719079;74;24471;-77
2021/01/02 02:11:52;;;;;;;35.73;23.96;;;4.50;99.90;;;9.46;89.85;101162.81;1712140;74;24448;-77
2021/01/02 02:14:17;;;;;;;38.40;26.51;;;4.50;99.90;;;9.26;89.39;101165.02;1708586;74;24492;-77
2021/01/02 02:16:42;;;;;;;37.70;27.12;;;4.50;99.90;;;9.44;89.87;101165.37;1713975;74;24438;-77
2021/01/02 02:19:02;;;;;;;37.92;27.30;;;4.50;99.90;;;9.54;89.24;101163.42;1711750;74;24431;-77
2021/01/02 02:21:23;;;;;;;36.91;26.92;;;4.50;99.90;;;9.39;89.46;101158.36;1705515;74;24567;-76
2021/01/02 02:23:46;;;;;;;32.09;21.47;;;4.50;99.90;;;9.31;89.14;101160.77;1698122;74;24757;-78
2021/01/02 02:26:07;;;;;;;34.90;24.07;;;4.50;99.90;;;9.15;89.45;101163.48;1706907;74;24496;-78
2021/01/02 02:31:48;;;;;;;36.74;25.61;;;4.50;99.90;;;9.63;88.53;101162.71;1725621;72;25214;-78
2021/01/02 02:34:05;;;;;;;35.58;24.47;;;4.40;99.90;;;9.38;89.30;101157.47;1710278;74;24437;-78
2021/01/02 02:36:24;;;;;;;38.38;26.72;;;4.40;99.90;;;9.29;88.69;101158.59;1711291;75;24862;-77
2021/01/02 02:38:41;;;;;;;37.46;27.24;;;4.40;99.90;;;9.41;89.15;101163.13;1713784;75;24736;-78
2021/01/02 02:40:58;;;;;;;37.02;25.23;;;4.50;99.90;;;9.44;88.98;101158.88;1705888;74;24515;-78
2021/01/02 02:43:16;;;;;;;36.92;26.03;;;4.50;99.90;;;9.21;88.46;101164.05;1712134;75;24435;-77
2021/01/02 02:45:36;;;;;;;36.95;25.08;;;4.50;99.90;;;9.13;89.43;101169.09;1705905;75;24502;-77
2021/01/02 02:47:57;;;;;;;38.47;27.25;;;4.50;99.90;;;9.21;89.24;101161.45;1700040;75;24492;-76
2021/01/02 02:50:22;;;;;;;38.61;25.54;;;4.50;99.90;;;9.36;89.86;101163.05;1714510;75;24958;-76
2021/01/02 02:52:41;;;;;;;36.68;25.20;;;4.40;99.90;;;9.38;88.58;101163.97;1714280;75;24922;-76
2021/01/02 02:54:57;;;;;;;36.96;26.23;;;4.50;99.90;;;9.30;88.35;101161.63;1707557;74;24450;-76
2021/01/02 02:57:17;;;;;;;37.57;27.64;;;4.40;99.90;;;9.27;88.99;101160.69;1708816;75;24922;-77
2021/01/02 02:59:33;;;;;;;31.96;22.60;;;4.40;99.90;;;9.23;89.09;101171.45;1703382;75;24472;-77
2021/01/02 03:01:55;;;;;;;33.60;22.83;;;4.40;99.90;;;9.09;88.27;101162.05;1703934;75;24510;-78
2021/01/02 03:04:11;;;;;;;37.40;26.40;;;4.40;99.90;;;9.04;88.61;101162.82;1713256;75;24452;-75
2021/01/02 03:06:32;;;;;;;35.34;26.68;;;4.40;99.90;;;9.18;89.30;101166.14;1707582;74;24443;-77
2021/01/02 03:08:49;;;;;;;35.86;25.65;;;4.30;99.90;;;9.18;88.80;101167.44;1707540;74;24510;-77
2021/01/02 03:11:06;;;;;;;32.27;23.52;;;4.30;99.90;;;9.06;88.52;101158.09;1717024;74;24457;-77
2021/01/02 03:13:22;;;;;;;35.77;26.90;;;4.30;99.90;;;9.03;88.87;101163.64;1717512;75;24897;-77
2021/01/02 03:15:43;;;;;;;35.57;26.07;;;4.30;99.90;;;9.02;88.74;101168.39;1716085;75;24565;-77
2021/01/02 03:17:59;;;;;;;35.14;25.68;;;4.30;99.90;;;9.08;88.90;101167.22;1709326;75;24436;-76
2021/01/02 03:20:19;;;;;;;40.41;27.53;;;4.30;99.90;;;9.14;89.12;101168.64;1701631;74;24902;-77
2021/01/02 03:22:39;;;;;;;32.77;24.07;;;4.30;99.90;;;9.20;88.29;101167.05;1678704;75;24661;-76
2021/01/02 03:24:56;;;;;;;34.17;23.70;;;4.30;99.90;;;9.16;88.19;101168.27;1712540;75;24926;-77
2021/01/02 03:27:16;;;;;;;31.35;22.48;;;4.30;99.90;;;8.94;88.38;101165.64;1707101;75;24523;-76
2021/01/02 03:29:32;;;;;;;38.85;27.09;;;4.30;99.90;;;8.88;88.88;101163.32;1710852;75;24697;-76
2021/01/02 03:31:48;;;;;;;35.15;26.00;;;4.30;99.90;;;9.09;88.43;101162.47;1705382;75;24464;-78
2021/01/02 03:34:04;;;;;;;39.09;27.64;;;4.30;99.90;;;8.94;88.59;101163.03;1713981;74;24484;-78
2021/01/02 03:36:20;;;;;;;36.02;26.97;;;4.30;99.90;;;9.05;88.58;101169.34;1715601;74;24487;-76
2021/01/02 03:38:38;;;;;;;35.48;24.63;;;4.20;99.90;;;8.89;88.61;101168.95;1711107;74;24523;-77
2021/01/02 03:40:54;;;;;;;36.51;26.43;;;4.20;99.90;;;8.97;88.95;101167.00;1709841;75;24472;-77
2021/01/02 03:43:10;;;;;;;33.30;23.49;;;4.20;99.90;;;8.98;89.26;101167.85;1710936;74;24943;-77
2021/01/02 03:45:26;;;;;;;27.10;18.14;;;4.20;99.90;;;9.05;88.40;101169.75;1704724;74;24939;-77
2021/01/02 03:47:46;;;;;;;36.99;24.46;;;4.20;99.90;;;8.88;88.32;101166.77;1712647;75;24443;-77
2021/01/02 03:50:03;;;;;;;36.43;24.70;;;4.20;99.90;;;8.83;88.96;101166.23;1711740;75;24437;-76
2021/01/02 03:52:19;;;;;;;38.09;28.19;;;4.20;99.90;;;8.85;88.88;101168.45;1703520;74;24889;-77
2021/01/02 03:54:36;;;;;;;37.22;27.40;;;4.20;99.90;;;9.08;88.37;101165.92;1709883;75;24905;-78
2021/01/02 03:56:53;;;;;;;37.74;26.42;;;4.20;99.90;;;9.04;88.45;101168.02;1711259;75;24958;-77
2021/01/02 03:59:09;;;;;;;35.88;25.42;;;4.20;99.90;;;9.05;88.00;101171.94;1710669;75;24436;-76
2021/01/02 04:01:26;;;;;;;33.61;23.47;;;4.20;99.90;;;8.94;88.18;101167.34;1714123;75;24472;-77
2021/01/02 04:03:42;;;;;;;36.78;27.20;;;4.20;99.90;;;8.76;88.88;101174.70;1706364;75;24431;-76
2021/01/02 04:05:58;;;;;;;38.00;27.67;;;4.20;99.90;;;9.01;89.20;101167.91;1707250;74;24412;-76
2021/01/02 04:08:15;;;;;;;37.44;27.20;;;4.10;99.90;;;9.05;88.52;101172.35;1709804;74;24561;-76
2021/01/02 04:10:32;;;;;;;31.31;21.39;;;4.20;99.90;;;9.04;87.95;101173.20;1709311;75;24429;-78
2021/01/02 04:12:48;;;;;;;35.42;26.72;;;4.10;99.90;;;8.58;89.12;101169.11;1706891;74;24432;-77
2021/01/02 04:15:06;;;;;;;36.90;28.70;;;4.10;99.90;;;8.93;89.30;101165.61;1706074;75;24526;-76
2021/01/02 04:17:23;;;;;;;35.50;25.42;;;4.10;99.90;;;8.88;88.15;101173.70;1710472;75;24443;-77
2021/01/02 04:19:39;;;;;;;33.83;22.57;;;4.10;99.90;;;8.73;88.23;101184.61;1710574;75;24548;-77
2021/01/02 04:21:55;;;;;;;37.01;26.57;;;4.10;99.90;;;8.66;88.83;101173.61;1710000;74;24915;-77
2021/01/02 04:24:12;;;;;;;36.35;25.60;;;4.10;99.90;;;8.80;88.37;101183.04;1707054;75;24527;-77
2021/01/02 04:26:29;;;;;;;34.26;24.48;;;4.10;99.90;;;8.76;88.42;101181.20;1705799;75;24951;-77
2021/01/02 04:28:45;;;;;;;35.64;24.70;;;4.10;99.90;;;8.65;89.03;101181.37;1697277;75;24452;-77
2021/01/02 04:31:03;;;;;;;34.92;23.57;;;4.00;99.90;;;8.70;89.28;101179.35;1713993;74;24503;-78
2021/01/02 04:33:24;;;;;;;37.17;27.43;;;4.00;99.90;;;8.69;88.71;101175.42;1716549;74;24478;-78
2021/01/02 04:35:39;;;;;;;34.21;22.49;;;4.00;99.90;;;8.72;88.77;101177.68;1713458;74;24447;-76
2021/01/02 04:37:56;;;;;;;32.89;22.93;;;4.00;99.90;;;8.66;88.33;101175.36;1713064;74;24457;-76
2021/01/02 04:40:16;;;;;;;38.24;27.09;;;4.00;99.90;;;8.55;88.52;101173.78;1720881;74;24447;-76
2021/01/02 04:42:36;;;;;;;34.85;26.35;;;4.00;99.90;;;8.63;88.23;101173.98;1717026;74;24491;-77
2021/01/02 04:44:54;;;;;;;37.58;26.26;;;4.00;99.90;;;8.60;88.40;101170.03;1716554;74;24452;-76
2021/01/02 04:47:12;;;;;;;23.80;15.55;;;3.90;99.90;;;8.61;88.22;101170.06;1716837;74;24439;-76
2021/01/02 04:49:28;;;;;;;34.85;24.15;;;3.90;99.90;;;8.44;88.53;101174.39;1713523;74;24480;-77
2021/01/02 04:51:48;;;;;;;33.22;23.01;;;3.90;99.90;;;8.43;89.04;101168.73;1713459;74;24483;-77
2021/01/02 04:54:06;;;;;;;33.74;24.56;;;3.90;99.90;;;8.41;88.69;101169.13;1723195;74;24504;-77
2021/01/02 04:56:24;;;;;;;40.12;29.26;;;3.80;99.90;;;8.31;89.41;101167.14;1717119;74;24931;-77
2021/01/02 04:58:44;;;;;;;38.60;27.65;;;3.80;99.90;;;8.45;89.10;101166.64;1713770;74;24440;-76
2021/01/02 05:01:03;;;;;;;39.04;27.23;;;3.80;99.90;;;8.51;88.34;101167.19;1722397;74;24522;-77
2021/01/02 05:03:23;;;;;;;38.47;28.71;;;3.70;99.90;;;8.62;87.93;101170.51;1719441;74;24526;-76
2021/01/02 05:05:39;;;;;;;40.61;30.29;;;3.70;99.90;;;8.70;87.40;101180.65;1716610;74;24528;-77
2021/01/02 05:07:55;;;;;;;40.26;30.09;;;3.70;99.90;;;8.70;87.13;101178.47;1706869;74;24487;-76
2021/01/02 05:10:13;;;;;;;39.05;26.73;;;3.70;99.90;;;8.87;87.02;101176.72;1713980;74;24444;-76
2021/01/02 05:12:33;;;;;;;36.30;25.70;;;3.80;99.90;;;8.74;86.20;101179.86;1718931;74;24451;-77
2021/01/02 05:15:02;;;;;;;39.58;27.08;;;3.80;99.90;;;8.63;87.31;101175.29;1712585;74;25004;-77
2021/01/02 05:17:30;;;;;;;33.22;24.09;;;3.80;99.90;;;8.60;87.56;101173.92;1718043;74;24451;-77
2021/01/02 05:20:00;;;;;;;36.39;25.65;;;3.80;99.90;;;8.43;88.23;101178.70;1709931;74;24519;-77
2021/01/02 05:22:27;;;;;;;39.70;28.53;;;3.80;99.90;;;8.73;87.92;101179.83;1714236;74;24887;-76
2021/01/02 05:24:43;;;;;;;40.21;29.11;;;3.90;99.90;;;8.75;88.01;101187.24;1716983;74;24559;-77
2021/01/02 05:27:01;;;;;;;42.81;30.82;;;3.90;99.90;;;8.73;87.41;101190.22;1714641;74;24578;-77
2021/01/02 05:29:20;;;;;;;35.08;24.13;;;3.90;99.90;;;8.78;87.65;101195.98;1714775;74;24498;-76
2021/01/02 05:31:38;;;;;;;40.90;29.60;;;3.90;99.90;;;8.55;87.70;101196.29;1723711;74;24469;-77
2021/01/02 05:34:04;;;;;;;39.54;27.53;;;3.90;99.90;;;8.73;87.83;101198.00;1705092;74;24937;-77
2021/01/02 05:36:24;;;;;;;32.63;21.53;;;3.90;99.90;;;8.65;88.26;101200.84;1692911;75;24443;-77
2021/01/02 05:38:42;;;;;;;35.38;25.04;;;3.90;99.90;;;8.55;88.35;101201.48;1702817;75;24925;-76
2021/01/02 05:41:00;;;;;;;40.06;28.08;;;3.90;99.90;;;8.49;88.75;101204.78;1698357;75;24436;-76
2021/01/02 05:43:18;;;;;;;39.48;28.97;;;3.90;99.90;;;8.77;88.02;101210.23;1690669;75;24531;-76
2021/01/02 05:45:35;;;;;;;40.20;27.53;;;3.90;99.90;;;8.89;87.64;101204.02;1697521;75;25350;-76
2021/01/02 05:47:51;;;;;;;43.55;30.04;;;3.90;99.90;;;8.54;87.80;101210.09;1699968;75;24553;-77
2021/01/02 05:50:13;;;;;;;41.48;28.82;;;3.90;99.90;;;8.87;87.43;101207.88;1700319;75;25527;-77
2021/01/02 05:52:37;;;;;;;47.46;31.15;;;3.90;99.90;;;8.79;87.29;101212.42;1688435;75;24532;-78
2021/01/02 05:54:54;;;;;;;44.52;30.52;;;3.90;99.90;;;8.76;86.80;101211.05;1690928;75;24445;-77
2021/01/02 05:57:11;;;;;;;44.37;30.47;;;3.90;99.90;;;8.73;87.42;101210.58;1694093;75;24437;-77
2021/01/02 05:59:41;;;;;;;42.53;29.82;;;3.90;99.90;;;8.83;87.54;101212.55;1696515;75;24540;-77
2021/01/02 06:02:00;;;;;;;42.89;29.45;;;3.90;99.90;;;8.67;87.09;101206.95;1695410;75;24469;-77
2021/01/02 06:04:20;;;;;;;44.53;30.72;;;3.90;99.90;;;8.74;87.18;101210.16;1693956;74;24911;-78
2021/01/02 06:06:36;;;;;;;42.32;30.95;;;3.90;99.90;;;8.95;86.93;101210.64;1695270;75;24941;-77
2021/01/02 06:08:54;;;;;;;45.97;30.30;;;4.00;99.90;;;8.84;86.61;101214.70;1704640;75;24873;-78
2021/01/02 06:11:14;;;;;;;43.90;30.77;;;3.90;99.90;;;8.76;87.17;101211.05;1696743;75;24855;-77
2021/01/02 06:13:33;;;;;;;45.38;31.10;;;3.90;99.90;;;8.84;86.98;101213.00;1690653;75;24449;-76
2021/01/02 06:15:54;;;;;;;46.03;30.41;;;4.00;99.90;;;8.75;87.52;101206.30;1692906;75;24586;-76
2021/01/02 06:18:10;;;;;;;43.99;31.70;;;3.90;99.90;;;8.90;86.61;101207.94;1695400;75;24564;-76
2021/01/02 06:20:27;;;;;;;47.33;29.65;;;3.90;99.90;;;8.89;86.65;101210.50;1700640;75;24465;-76
2021/01/02 06:22:44;;;;;;;46.66;29.83;;;4.00;99.90;;;8.65;86.55;101208.62;1703493;75;24481;-75
2021/01/02 06:25:01;;;;;;;46.48;30.61;;;4.00;99.90;;;8.77;87.00;101220.62;1696218;75;24543;-77
2021/01/02 06:27:18;;;;;;;45.77;31.75;;;4.00;99.90;;;8.93;86.44;101227.93;1698898;75;24453;-76
2021/01/02 06:29:34;;;;;;;44.68;28.89;;;4.00;99.90;;;8.83;87.12;101225.95;1699150;75;24461;-78
2021/01/02 06:31:52;;;;;;;50.41;33.42;;;4.00;99.90;;;8.61;86.76;101224.98;1695254;75;24905;-77
2021/01/02 06:34:09;;;;;;;50.33;31.22;;;4.00;99.90;;;8.73;87.47;101227.86;1691700;75;24739;-77
2021/01/02 06:36:33;;;;;;;50.71;34.27;;;4.00;99.90;;;8.84;86.96;101240.67;1703345;75;24452;-78
2021/01/02 06:38:55;;;;;;;49.66;32.82;;;4.00;99.90;;;8.76;86.34;101229.23;1697573;75;24503;-77
2021/01/02 06:41:13;;;;;;;47.67;32.20;;;4.00;99.90;;;8.82;87.10;101234.59;1687475;75;24885;-77
2021/01/02 06:43:41;;;;;;;50.54;33.54;;;4.00;99.90;;;8.84;87.07;101238.08;1692341;75;24440;-77
2021/01/02 06:46:02;;;;;;;47.92;33.51;;;4.00;99.90;;;8.85;86.51;101235.52;1692889;75;24472;-76
2021/01/02 06:48:44;;;;;;;49.68;34.34;;;4.00;99.90;;;9.08;86.43;101243.84;1698867;75;24493;-78
2021/01/02 06:51:08;;;;;;;45.57;29.60;;;4.00;99.90;;;9.06;85.75;101241.62;1694240;75;24485;-77
2021/01/02 06:53:28;;;;;;;48.78;32.97;;;4.00;99.90;;;8.93;85.98;101241.77;1695856;75;24928;-76
2021/01/02 06:55:45;;;;;;;49.15;32.74;;;4.00;99.90;;;8.97;85.87;101238.42;1692255;75;24422;-77
2021/01/02 06:58:23;;;;;;;44.24;26.13;;;4.00;99.90;;;8.86;87.04;101243.78;1695699;75;24858;-76
2021/01/02 07:00:41;;;;;;;51.22;33.90;;;4.00;99.90;;;8.74;86.61;101238.72;1704464;75;24437;-75
2021/01/02 07:03:00;;;;;;;48.21;31.13;;;3.90;99.90;;;8.87;86.81;101235.55;1697831;75;24965;-78
2021/01/02 07:05:43;;;;;;;48.27;31.78;;;3.90;99.90;;;8.77;86.22;101249.17;1696582;75;24438;-76
2021/01/02 07:08:05;;;;;;;53.90;34.58;;;3.90;99.90;;;8.63;86.85;101238.44;1689948;75;24785;-77
2021/01/02 07:10:25;;;;;;;50.83;31.70;;;3.80;99.90;;;8.53;86.72;101243.37;1703232;75;24437;-75
2021/01/02 07:12:43;;;;;;;53.66;33.47;;;3.80;99.90;;;8.41;86.82;101247.83;1669502;75;24474;-75
2021/01/02 07:15:09;;;;;;;49.46;28.14;;;3.80;99.90;;;8.59;87.15;101249.61;1690891;75;24477;-76
2021/01/02 07:17:26;;;;;;;54.80;34.92;;;3.70;99.90;;;8.47;87.04;101253.17;1702051;75;24456;-76
2021/01/02 07:19:51;;;;;;;50.42;31.19;;;3.70;99.90;;;8.68;86.89;101255.42;1692413;75;24496;-76
2021/01/02 07:22:12;;;;;;;55.78;34.91;;;3.70;99.90;;;8.62;86.45;101250.09;1693889;75;24442;-76
2021/01/02 07:24:29;;;;;;;57.03;36.75;;;3.70;99.90;;;8.62;86.97;101249.67;1704895;75;24438;-76
2021/01/02 07:26:46;;;;;;;58.10;37.66;;;3.70;99.90;;;8.80;87.35;101247.51;1696843;75;24988;-76
2021/01/02 07:29:02;;;;;;;59.19;37.05;;;3.70;99.90;;;8.73;86.85;101246.92;1697284;75;24428;-76
2021/01/02 07:31:19;;;;;;;60.95;36.69;;;3.80;99.90;;;8.85;86.56;101251.54;1694520;75;24454;-76
2021/01/02 07:33:41;;;;;;;59.40;37.24;;;3.70;99.90;;;8.84;86.00;101258.85;1694734;75;24920;-76
2021/01/02 07:36:00;;;;;;;55.52;31.64;;;3.80;99.90;;;8.74;85.89;101254.30;1698103;75;24899;-76
2021/01/02 07:38:20;;;;;;;58.61;35.66;;;3.70;99.90;;;8.57;86.53;101252.98;1694876;75;24458;-77
2021/01/02 07:40:37;;;;;;;62.89;37.05;;;3.80;99.90;;;8.68;86.68;101255.42;1704811;75;24899;-76
2021/01/02 07:42:58;;;;;;;61.60;37.67;;;3.70;99.90;;;8.57;86.39;101257.77;1675980;75;24454;-76
2021/01/02 07:45:20;;;;;;;61.94;37.67;;;3.70;99.90;;;8.73;86.55;101260.31;1698618;75;24437;-76
2021/01/02 07:47:37;;;;;;;60.95;37.93;;;3.70;99.90;;;8.74;86.22;101264.24;1693172;75;24824;-75
2021/01/02 07:50:04;;;;;;;64.96;39.63;;;3.70;99.90;;;8.64;86.77;101266.17;1693489;75;24912;-75
2021/01/02 07:52:20;;;;;;;65.00;38.54;;;3.80;99.90;;;8.73;86.71;101275.48;1701549;75;24433;-77
2021/01/02 07:54:40;;;;;;;62.29;35.80;;;3.80;99.90;;;8.80;86.71;101273.47;1699496;75;24445;-78
2021/01/02 07:56:57;;;;;;;60.44;37.70;;;3.70;99.90;;;8.65;86.35;101276.12;1704393;75;24504;-76
2021/01/02 07:59:31;;;;;;;62.57;36.72;;;3.80;99.90;;;8.78;86.71;101280.38;1703328;75;24450;-76
2021/01/02 08:01:52;;;;;;;65.27;39.63;;;3.80;99.90;;;8.72;86.24;101278.04;1691937;75;24467;-76
2021/01/02 08:04:11;;;;;;;61.95;33.70;;;3.80;99.90;;;9.06;86.40;101271.09;1667421;75;24554;-76
2021/01/02 08:06:27;;;;;;;63.97;37.38;;;3.80;99.90;;;8.64;86.33;101268.77;1700503;75;24539;-77
2021/01/02 08:08:45;;;;;;;69.09;38.84;;;3.80;99.90;;;8.71;87.21;101270.66;1693607;75;24649;-77
2021/01/02 08:11:01;;;;;;;67.40;40.09;;;3.80;99.90;;;8.76;86.79;101271.66;1699056;75;24898;-76
2021/01/02 08:13:18;;;;;;;69.68;37.74;;;3.80;99.90;;;8.80;86.68;101276.52;1694197;75;24612;-77
2021/01/02 08:15:37;;;;;;;66.53;38.58;;;3.80;99.90;;;8.87;86.26;101281.00;1695179;75;24441;-76
2021/01/02 08:17:53;;;;;;;69.54;40.62;;;3.80;99.90;;;8.74;87.23;101290.64;1700591;75;24453;-76
2021/01/02 08:20:14;;;;;;;62.91;34.73;;;3.80;99.90;;;8.80;87.65;101285.16;1700728;74;24878;-76
2021/01/02 08:22:35;;;;;;;66.83;38.52;;;3.80;99.90;;;8.63;86.97;101283.87;1699145;75;24513;-76
2021/01/02 08:24:57;;;;;;;66.36;38.91;;;3.80;99.90;;;8.76;87.77;101283.75;1702038;75;24428;-76
2021/01/02 08:27:13;;;;;;;69.60;37.40;;;3.90;99.90;;;8.78;87.50;101288.57;1704233;75;24564;-76
2021/01/02 08:29:32;;;;;;;70.96;41.12;;;3.90;99.90;;;8.81;87.54;101285.63;1700355;75;24492;-76
2021/01/02 08:31:54;;;;;;;54.88;29.38;;;3.90;99.90;;;8.91;87.32;101291.94;1696019;75;24452;-77
2021/01/02 08:34:15;;;;;;;72.88;41.00;;;3.90;99.90;;;8.66;86.99;101290.87;1694208;75;24496;-76
2021/01/02 08:36:31;;;;;;;63.09;37.00;;;3.90;99.90;;;8.83;87.37;101304.73;1721077;74;25034;-77
2021/01/02 08:38:56;;;;;;;57.70;33.39;;;3.90;99.90;;;8.73;87.04;101313.12;1713699;74;24910;-77
2021/01/02 08:41:24;;;;;;;67.26;39.40;;;3.90;99.90;;;8.62;87.71;101307.19;1716806;74;24454;-77
2021/01/02 08:43:42;;;;;;;47.24;26.03;;;3.90;99.90;;;9.01;87.65;101318.56;1719962;74;24483;-77
2021/01/02 08:46:06;;;;;;;61.04;36.13;;;3.90;99.90;;;8.71;86.92;101318.69;1713528;74;24550;-76
2021/01/02 08:48:22;;;;;;;59.15;32.62;;;3.90;99.90;;;8.82;87.33;101318.54;1698356;74;24905;-76
2021/01/02 08:50:41;;;;;;;67.09;38.46;;;3.90;99.90;;;8.71;87.10;101312.20;1713361;74;24432;-76
2021/01/02 08:52:57;;;;;;;68.09;39.40;;;3.90;99.90;;;8.80;87.33;101312.86;1717611;74;24449;-76
2021/01/02 08:55:17;;;;;;;71.54;40.64;;;3.90;99.90;;;8.95;87.52;101313.22;1718617;74;24433;-77
2021/01/02 08:57:38;;;;;;;63.92;36.90;;;4.00;99.90;;;8.97;87.20;101318.94;1716284;74;24446;-76
2021/01/02 09:00:10;;;;;;;75.10;40.64;;;4.00;99.90;;;8.95;86.52;101324.50;1715723;74;24931;-76
2021/01/02 09:02:28;;;;;;;64.52;39.07;;;4.00;99.90;;;9.11;86.95;101314.95;1714785;74;24869;-76
2021/01/02 09:04:46;;;;;;;65.48;35.36;;;4.10;99.90;;;9.04;86.48;101314.77;1716384;74;24884;-75
2021/01/02 09:07:05;;;;;;;66.97;39.21;;;4.10;99.90;;;8.73;87.01;101321.32;1712646;74;24510;-77
2021/01/02 09:09:24;;;;;;;63.68;37.57;;;4.10;99.90;;;8.78;88.01;101326.22;1711639;74;24468;-75
2021/01/02 09:11:57;;;;;;;58.86;33.50;;;4.10;99.90;;;9.04;87.54;101328.61;1712721;74;24546;-76
2021/01/02 09:14:13;;;;;;;57.07;33.00;;;4.10;99.90;;;9.00;87.34;101324.20;1717207;74;24432;-77
2021/01/02 09:16:30;;;;;;;59.33;33.54;;;4.10;99.90;;;8.88;87.99;101325.63;1717792;74;24489;-77
2021/01/02 09:18:48;;;;;;;64.67;37.37;;;4.10;99.90;;;9.06;87.81;101324.75;1719612;74;24441;-77
2021/01/02 09:21:25;;;;;;;62.14;37.06;;;4.10;99.90;;;9.11;87.11;101320.55;1707280;74;24451;-76
2021/01/02 09:23:44;;;;;;;60.19;36.89;;;4.20;99.90;;;9.03;87.08;101326.87;1715759;74;24925;-75
2021/01/02 09:26:01;;;;;;;60.98;35.02;;;4.20;99.90;;;9.29;87.34;101327.49;1713038;74;24480;-75
2021/01/02 09:28:19;;;;;;;59.52;36.96;;;4.20;99.90;;;9.11;87.03;101328.34;1710577;74;24400;-77
2021/01/02 09:30:35;;;;;;;64.75;37.98;;;4.20;99.90;;;9.34;86.99;101332.80;1714552;74;24448;-76
2021/01/02 09:32:51;;;;;;;64.18;38.28;;;4.30;99.90;;;9.45;86.82;101333.92;1716396;74;24519;-75
2021/01/02 09:35:15;;;;;;;58.96;32.90;;;4.30;99.90;;;9.39;86.00;101335.94;1714859;74;24468;-77
2021/01/02 09:37:31;;;;;;;62.35;32.84;;;4.30;99.90;;;9.19;86.43;101333.30;1714163;74;24872;-77
2021/01/02 09:40:18;;;;;;;60.57;37.13;;;4.40;99.90;;;9.14;86.90;101333.61;1715530;74;24512;-77
2021/01/02 09:42:34;;;;;;;58.99;31.87;;;4.40;99.90;;;9.27;87.22;101326.98;1713319;74;24909;-78
2021/01/02 09:44:52;;;;;;;64.37;34.96;;;4.40;99.90;;;9.25;87.29;101336.48;1712153;74;24451;-76
2021/01/02 09:47:11;;;;;;;60.74;34.11;;;4.40;99.90;;;9.30;87.46;101338.74;1720497;74;24452;-78
2021/01/02 09:49:28;;;;;;;50.27;28.34;;;4.50;99.90;;;9.31;86.96;101348.31;1721986;74;24437;-76
2021/01/02 09:51:46;;;;;;;56.20;30.15;;;4.50;99.90;;;9.05;87.57;101349.88;1710542;74;24893;-77
2021/01/02 09:54:05;;;;;;;64.55;35.58;;;4.50;99.90;;;9.05;88.17;101355.48;1710028;74;24499;-76